sensor_id;sensor_type;location;lat;lon;timestamp;pressure;altitude;pressure_sealevel;temperature;humidity
83444;BME280;73374;41.170;-96.156;2024-02-23T00:04:42;97031.22;;;13.22;40.91
83444;BME280;73374;41.170;-96.156;2024-02-23T00:09:45;97037.47;;;12.91;41.32
83444;BME280;73374;41.170;-96.156;2024-02-23T00:14:50;97038.75;;;12.81;41.49
83444;BME280;73374;41.170;-96.156;2024-02-23T00:19:53;97047.84;;;12.41;42.61
83444;BME280;73374;41.170;-96.156;2024-02-23T00:25:15;97061.78;;;12.18;42.78
83444;BME280;73374;41.170;-96.156;2024-02-23T00:30:19;97064.19;;;12.05;43.19
83444;BME280;73374;41.170;-96.156;2024-02-23T00:35:24;97075.00;;;11.94;43.39
83444;BME280;73374;41.170;-96.156;2024-02-23T00:40:28;97089.66;;;11.72;44.82
83444;BME280;73374;41.170;-96.156;2024-02-23T00:45:36;97089.41;;;11.59;45.08
83444;BME280;73374;41.170;-96.156;2024-02-23T00:50:39;97096.59;;;11.34;46.29
83444;BME280;73374;41.170;-96.156;2024-02-23T00:55:42;97102.09;;;11.08;46.24
83444;BME280;73374;41.170;-96.156;2024-02-23T01:00:46;97108.78;;;11.02;47.67
83444;BME280;73374;41.170;-96.156;2024-02-23T01:05:50;97116.19;;;10.74;47.74
83444;BME280;73374;41.170;-96.156;2024-02-23T01:10:53;97113.97;;;10.63;46.73
83444;BME280;73374;41.170;-96.156;2024-02-23T01:15:58;97124.03;;;10.58;47.16
83444;BME280;73374;41.170;-96.156;2024-02-23T01:21:01;97125.72;;;10.43;46.41
83444;BME280;73374;41.170;-96.156;2024-02-23T01:26:04;97127.19;;;10.21;46.62
83444;BME280;73374;41.170;-96.156;2024-02-23T01:31:10;97126.06;;;9.99;46.52
83444;BME280;73374;41.170;-96.156;2024-02-23T01:36:13;97132.53;;;9.79;46.96
83444;BME280;73374;41.170;-96.156;2024-02-23T01:41:17;97130.44;;;9.82;47.26
83444;BME280;73374;41.170;-96.156;2024-02-23T01:46:21;97140.63;;;9.67;47.56
83444;BME280;73374;41.170;-96.156;2024-02-23T01:51:25;97136.75;;;9.63;48.30
83444;BME280;73374;41.170;-96.156;2024-02-23T01:56:28;97141.91;;;9.47;48.10
83444;BME280;73374;41.170;-96.156;2024-02-23T02:01:33;97139.28;;;9.31;48.56
83444;BME280;73374;41.170;-96.156;2024-02-23T02:06:36;97151.56;;;9.21;48.67
83444;BME280;73374;41.170;-96.156;2024-02-23T02:11:45;97141.97;;;9.13;48.80
83444;BME280;73374;41.170;-96.156;2024-02-23T02:16:50;97152.13;;;8.98;49.22
83444;BME280;73374;41.170;-96.156;2024-02-23T02:21:53;97151.59;;;8.87;49.07
83444;BME280;73374;41.170;-96.156;2024-02-23T02:26:56;97157.53;;;8.79;49.78
83444;BME280;73374;41.170;-96.156;2024-02-23T02:32:01;97158.25;;;8.55;50.47
83444;BME280;73374;41.170;-96.156;2024-02-23T02:37:04;97152.97;;;8.39;50.39
83444;BME280;73374;41.170;-96.156;2024-02-23T02:42:07;97156.13;;;8.15;51.56
83444;BME280;73374;41.170;-96.156;2024-02-23T02:47:12;97156.53;;;8.20;51.59
83444;BME280;73374;41.170;-96.156;2024-02-23T02:52:15;97161.09;;;7.82;52.22
83444;BME280;73374;41.170;-96.156;2024-02-23T02:57:18;97155.00;;;7.56;52.95
83444;BME280;73374;41.170;-96.156;2024-02-23T03:02:23;97167.28;;;7.26;54.12
83444;BME280;73374;41.170;-96.156;2024-02-23T03:07:26;97173.13;;;7.29;54.49
83444;BME280;73374;41.170;-96.156;2024-02-23T03:12:29;97168.09;;;7.27;55.08
83444;BME280;73374;41.170;-96.156;2024-02-23T03:17:34;97170.38;;;7.12;55.05
83444;BME280;73374;41.170;-96.156;2024-02-23T03:22:37;97173.91;;;6.84;56.48
83444;BME280;73374;41.170;-96.156;2024-02-23T03:27:40;97179.59;;;6.50;56.69
83444;BME280;73374;41.170;-96.156;2024-02-23T03:32:45;97177.28;;;6.47;57.91
83444;BME280;73374;41.170;-96.156;2024-02-23T03:37:48;97174.63;;;6.29;57.89
83444;BME280;73374;41.170;-96.156;2024-02-23T03:42:51;97178.00;;;6.30;57.65
83444;BME280;73374;41.170;-96.156;2024-02-23T03:47:56;97189.44;;;6.08;58.08
83444;BME280;73374;41.170;-96.156;2024-02-23T03:52:59;97161.63;;;5.92;59.38
83444;BME280;73374;41.170;-96.156;2024-02-23T03:58:02;97187.41;;;5.92;59.84
83444;BME280;73374;41.170;-96.156;2024-02-23T04:03:07;97196.31;;;5.69;59.57
83444;BME280;73374;41.170;-96.156;2024-02-23T04:08:10;97184.75;;;5.54;60.12
83444;BME280;73374;41.170;-96.156;2024-02-23T04:13:13;97182.69;;;5.38;61.44
83444;BME280;73374;41.170;-96.156;2024-02-23T04:18:17;97190.84;;;5.33;61.31
83444;BME280;73374;41.170;-96.156;2024-02-23T04:23:21;97186.84;;;5.10;62.22
83444;BME280;73374;41.170;-96.156;2024-02-23T04:28:24;97188.31;;;5.03;62.79
83444;BME280;73374;41.170;-96.156;2024-02-23T04:33:28;97183.56;;;4.98;62.89
83444;BME280;73374;41.170;-96.156;2024-02-23T04:38:32;97192.06;;;4.89;62.45
83444;BME280;73374;41.170;-96.156;2024-02-23T04:43:35;97189.50;;;4.59;63.73
83444;BME280;73374;41.170;-96.156;2024-02-23T04:48:39;97168.56;;;4.42;64.29
83444;BME280;73374;41.170;-96.156;2024-02-23T04:53:42;97202.16;;;4.50;64.16
83444;BME280;73374;41.170;-96.156;2024-02-23T04:58:45;97196.72;;;4.44;64.53
83444;BME280;73374;41.170;-96.156;2024-02-23T05:03:50;97193.97;;;4.36;64.88
83444;BME280;73374;41.170;-96.156;2024-02-23T05:08:53;97194.41;;;4.20;65.04
83444;BME280;73374;41.170;-96.156;2024-02-23T05:13:56;97188.38;;;4.10;65.52
83444;BME280;73374;41.170;-96.156;2024-02-23T05:19:01;97197.53;;;4.03;65.73
83444;BME280;73374;41.170;-96.156;2024-02-23T05:24:04;97199.50;;;3.78;66.10
83444;BME280;73374;41.170;-96.156;2024-02-23T05:29:08;97203.06;;;3.66;66.66
83444;BME280;73374;41.170;-96.156;2024-02-23T05:34:12;97196.81;;;3.48;67.25
83444;BME280;73374;41.170;-96.156;2024-02-23T05:39:15;97190.88;;;3.36;67.81
83444;BME280;73374;41.170;-96.156;2024-02-23T05:44:19;97189.13;;;3.37;67.80
83444;BME280;73374;41.170;-96.156;2024-02-23T05:49:23;97180.63;;;3.25;67.88
83444;BME280;73374;41.170;-96.156;2024-02-23T05:54:27;97173.91;;;3.01;68.26
83444;BME280;73374;41.170;-96.156;2024-02-23T05:59:30;97184.88;;;2.92;68.48
83444;BME280;73374;41.170;-96.156;2024-02-23T06:04:34;97171.84;;;2.62;69.57
83444;BME280;73374;41.170;-96.156;2024-02-23T06:09:37;97173.91;;;2.57;70.11
83444;BME280;73374;41.170;-96.156;2024-02-23T06:14:40;97172.75;;;2.50;70.34
83444;BME280;73374;41.170;-96.156;2024-02-23T06:19:44;97170.31;;;2.48;70.46
83444;BME280;73374;41.170;-96.156;2024-02-23T06:24:47;97166.66;;;2.39;71.03
83444;BME280;73374;41.170;-96.156;2024-02-23T06:29:50;97163.66;;;2.34;71.32
83444;BME280;73374;41.170;-96.156;2024-02-23T06:34:54;97161.09;;;2.34;71.39
83444;BME280;73374;41.170;-96.156;2024-02-23T06:40:02;97154.91;;;2.26;71.13
83444;BME280;73374;41.170;-96.156;2024-02-23T06:45:04;97151.41;;;2.27;71.27
83444;BME280;73374;41.170;-96.156;2024-02-23T06:50:10;97151.28;;;2.17;71.39
83444;BME280;73374;41.170;-96.156;2024-02-23T06:55:13;97154.22;;;1.89;72.03
83444;BME280;73374;41.170;-96.156;2024-02-23T07:00:17;97147.66;;;1.73;71.94
83444;BME280;73374;41.170;-96.156;2024-02-23T07:05:22;97135.81;;;1.48;72.46
83444;BME280;73374;41.170;-96.156;2024-02-23T07:10:25;97146.22;;;1.34;72.37
83444;BME280;73374;41.170;-96.156;2024-02-23T07:15:28;97139.38;;;1.35;72.75
83444;BME280;73374;41.170;-96.156;2024-02-23T07:20:33;97109.53;;;1.23;72.66
83444;BME280;73374;41.170;-96.156;2024-02-23T07:25:36;97115.84;;;1.30;73.01
83444;BME280;73374;41.170;-96.156;2024-02-23T07:30:38;97132.84;;;1.31;72.15
83444;BME280;73374;41.170;-96.156;2024-02-23T07:35:43;97117.09;;;1.00;73.26
83444;BME280;73374;41.170;-96.156;2024-02-23T07:40:46;97125.06;;;1.08;73.54
83444;BME280;73374;41.170;-96.156;2024-02-23T07:45:49;97122.97;;;1.13;73.40
83444;BME280;73374;41.170;-96.156;2024-02-23T07:50:54;97127.63;;;1.08;73.55
83444;BME280;73374;41.170;-96.156;2024-02-23T07:55:57;97131.06;;;0.83;73.54
83444;BME280;73374;41.170;-96.156;2024-02-23T08:01:00;97123.50;;;0.69;73.88
83444;BME280;73374;41.170;-96.156;2024-02-23T08:06:05;97114.03;;;0.71;73.81
83444;BME280;73374;41.170;-96.156;2024-02-23T08:11:08;97114.16;;;0.57;74.02
83444;BME280;73374;41.170;-96.156;2024-02-23T08:16:11;97118.44;;;0.56;74.68
83444;BME280;73374;41.170;-96.156;2024-02-23T08:21:15;97110.44;;;0.74;74.36
83444;BME280;73374;41.170;-96.156;2024-02-23T08:26:18;97105.94;;;0.65;74.83
83444;BME280;73374;41.170;-96.156;2024-02-23T08:31:22;97105.19;;;0.88;73.96
83444;BME280;73374;41.170;-96.156;2024-02-23T08:36:26;97103.44;;;1.12;72.74
83444;BME280;73374;41.170;-96.156;2024-02-23T08:41:29;97094.63;;;1.16;73.36
83444;BME280;73374;41.170;-96.156;2024-02-23T08:46:33;97082.28;;;1.10;73.68
83444;BME280;73374;41.170;-96.156;2024-02-23T08:51:37;97072.53;;;1.15;73.53
83444;BME280;73374;41.170;-96.156;2024-02-23T08:56:40;97067.16;;;1.42;72.89
83444;BME280;73374;41.170;-96.156;2024-02-23T09:01:43;97065.50;;;1.30;72.13
83444;BME280;73374;41.170;-96.156;2024-02-23T09:06:47;97068.56;;;1.11;73.15
83444;BME280;73374;41.170;-96.156;2024-02-23T09:11:50;97072.56;;;0.79;73.61
83444;BME280;73374;41.170;-96.156;2024-02-23T09:16:53;97089.91;;;0.63;74.82
83444;BME280;73374;41.170;-96.156;2024-02-23T09:21:58;97079.56;;;0.64;74.24
83444;BME280;73374;41.170;-96.156;2024-02-23T09:27:01;97071.19;;;0.86;74.06
83444;BME280;73374;41.170;-96.156;2024-02-23T09:32:04;97066.19;;;0.84;73.77
83444;BME280;73374;41.170;-96.156;2024-02-23T09:37:09;97055.66;;;0.89;73.89
83444;BME280;73374;41.170;-96.156;2024-02-23T09:42:12;97065.00;;;1.01;74.17
83444;BME280;73374;41.170;-96.156;2024-02-23T09:47:15;97043.53;;;0.80;73.77
83444;BME280;73374;41.170;-96.156;2024-02-23T09:52:19;97041.25;;;0.88;74.54
83444;BME280;73374;41.170;-96.156;2024-02-23T09:57:23;97040.69;;;0.96;73.52
83444;BME280;73374;41.170;-96.156;2024-02-23T10:02:28;97033.59;;;0.99;73.76
83444;BME280;73374;41.170;-96.156;2024-02-23T10:07:33;97038.84;;;0.98;72.74
83444;BME280;73374;41.170;-96.156;2024-02-23T10:12:36;97043.97;;;0.74;73.86
83444;BME280;73374;41.170;-96.156;2024-02-23T10:17:39;97050.59;;;0.52;74.70
83444;BME280;73374;41.170;-96.156;2024-02-23T10:22:45;97049.00;;;0.26;74.73
83444;BME280;73374;41.170;-96.156;2024-02-23T10:27:48;97042.97;;;0.27;75.06
83444;BME280;73374;41.170;-96.156;2024-02-23T10:32:55;97039.25;;;0.44;74.64
83444;BME280;73374;41.170;-96.156;2024-02-23T10:38:00;97050.50;;;0.28;75.37
83444;BME280;73374;41.170;-96.156;2024-02-23T10:43:05;97029.72;;;0.09;75.59
83444;BME280;73374;41.170;-96.156;2024-02-23T10:48:13;97048.28;;;0.11;76.29
83444;BME280;73374;41.170;-96.156;2024-02-23T10:53:19;97034.91;;;0.20;76.24
83444;BME280;73374;41.170;-96.156;2024-02-23T10:58:22;97035.72;;;0.21;75.26
83444;BME280;73374;41.170;-96.156;2024-02-23T11:03:26;97010.72;;;0.01;76.32
83444;BME280;73374;41.170;-96.156;2024-02-23T11:08:32;97016.41;;;0.17;75.44
83444;BME280;73374;41.170;-96.156;2024-02-23T11:13:36;97024.84;;;0.43;75.28
83444;BME280;73374;41.170;-96.156;2024-02-23T11:18:40;97028.41;;;0.40;75.12
83444;BME280;73374;41.170;-96.156;2024-02-23T11:23:48;97026.84;;;0.50;74.96
83444;BME280;73374;41.170;-96.156;2024-02-23T11:28:51;97017.06;;;0.44;75.03
83444;BME280;73374;41.170;-96.156;2024-02-23T11:33:55;97018.97;;;0.53;74.89
83444;BME280;73374;41.170;-96.156;2024-02-23T11:39:01;97027.13;;;0.58;74.70
83444;BME280;73374;41.170;-96.156;2024-02-23T11:44:05;97029.25;;;0.65;74.22
83444;BME280;73374;41.170;-96.156;2024-02-23T11:49:08;97030.06;;;0.65;74.71
83444;BME280;73374;41.170;-96.156;2024-02-23T11:54:12;97027.28;;;0.68;73.93
83444;BME280;73374;41.170;-96.156;2024-02-23T11:59:16;97036.19;;;0.75;74.52
83444;BME280;73374;41.170;-96.156;2024-02-23T12:04:19;97044.06;;;0.72;73.12
83444;BME280;73374;41.170;-96.156;2024-02-23T12:09:23;97048.09;;;0.87;73.49
83444;BME280;73374;41.170;-96.156;2024-02-23T12:14:26;97055.16;;;0.84;73.29
83444;BME280;73374;41.170;-96.156;2024-02-23T12:19:30;97056.78;;;0.85;74.13
83444;BME280;73374;41.170;-96.156;2024-02-23T12:24:34;97047.88;;;0.90;73.89
83444;BME280;73374;41.170;-96.156;2024-02-23T12:29:37;97057.06;;;0.93;73.82
83444;BME280;73374;41.170;-96.156;2024-02-23T12:34:44;97047.72;;;1.05;74.07
83444;BME280;73374;41.170;-96.156;2024-02-23T12:39:48;97049.41;;;0.93;73.02
83444;BME280;73374;41.170;-96.156;2024-02-23T12:44:51;97053.72;;;1.04;73.28
83444;BME280;73374;41.170;-96.156;2024-02-23T12:49:54;97054.34;;;1.07;73.14
83444;BME280;73374;41.170;-96.156;2024-02-23T12:54:59;97055.06;;;1.09;73.43
83444;BME280;73374;41.170;-96.156;2024-02-23T13:00:02;97059.78;;;1.03;73.39
83444;BME280;73374;41.170;-96.156;2024-02-23T13:05:06;97060.13;;;0.98;73.51
83444;BME280;73374;41.170;-96.156;2024-02-23T13:10:11;97078.59;;;1.02;73.26
83444;BME280;73374;41.170;-96.156;2024-02-23T13:15:14;97079.22;;;1.05;73.52
83444;BME280;73374;41.170;-96.156;2024-02-23T13:20:20;97086.53;;;1.23;73.03
83444;BME280;73374;41.170;-96.156;2024-02-23T13:25:27;97088.84;;;1.26;72.79
83444;BME280;73374;41.170;-96.156;2024-02-23T13:30:31;97088.97;;;1.59;72.45
83444;BME280;73374;41.170;-96.156;2024-02-23T13:35:33;97086.13;;;1.86;71.92
83444;BME280;73374;41.170;-96.156;2024-02-23T13:40:38;97081.91;;;1.85;70.77
83444;BME280;73374;41.170;-96.156;2024-02-23T13:45:48;97083.22;;;2.02;70.43
83444;BME280;73374;41.170;-96.156;2024-02-23T13:50:52;97081.50;;;2.25;70.25
83444;BME280;73374;41.170;-96.156;2024-02-23T13:55:56;97090.59;;;2.62;68.78
83444;BME280;73374;41.170;-96.156;2024-02-23T14:00:59;97083.28;;;3.01;67.73
83444;BME280;73374;41.170;-96.156;2024-02-23T14:06:03;97088.03;;;3.49;65.82
83444;BME280;73374;41.170;-96.156;2024-02-23T14:11:07;97089.88;;;4.09;63.77
83444;BME280;73374;41.170;-96.156;2024-02-23T14:16:11;97089.09;;;4.49;63.42
83444;BME280;73374;41.170;-96.156;2024-02-23T14:21:14;97093.19;;;4.92;60.79
83444;BME280;73374;41.170;-96.156;2024-02-23T14:26:18;97081.72;;;5.25;60.63
83444;BME280;73374;41.170;-96.156;2024-02-23T14:31:21;97078.03;;;5.75;59.13
83444;BME280;73374;41.170;-96.156;2024-02-23T14:36:24;97075.25;;;6.25;58.19
83444;BME280;73374;41.170;-96.156;2024-02-23T14:41:28;97070.81;;;6.45;56.04
83444;BME280;73374;41.170;-96.156;2024-02-23T14:46:32;97078.72;;;7.52;55.18
83444;BME280;73374;41.170;-96.156;2024-02-23T14:51:35;97083.06;;;7.51;53.51
83444;BME280;73374;41.170;-96.156;2024-02-23T14:56:40;97082.38;;;8.11;52.73
83444;BME280;73374;41.170;-96.156;2024-02-23T15:01:43;97088.41;;;8.37;52.10
83444;BME280;73374;41.170;-96.156;2024-02-23T15:06:46;97115.75;;;8.74;50.66
83444;BME280;73374;41.170;-96.156;2024-02-23T15:11:50;97101.06;;;8.83;50.75
83444;BME280;73374;41.170;-96.156;2024-02-23T15:16:54;97113.66;;;9.36;50.67
83444;BME280;73374;41.170;-96.156;2024-02-23T15:21:57;97118.44;;;9.73;48.32
83444;BME280;73374;41.170;-96.156;2024-02-23T15:27:01;97100.56;;;11.22;46.97
83444;BME280;73374;41.170;-96.156;2024-02-23T15:32:05;97106.47;;;10.76;46.20
83444;BME280;73374;41.170;-96.156;2024-02-23T15:37:08;97092.28;;;10.87;45.68
83444;BME280;73374;41.170;-96.156;2024-02-23T15:42:13;97087.66;;;11.82;44.51
83444;BME280;73374;41.170;-96.156;2024-02-23T15:47:16;97069.78;;;13.26;42.38
83444;BME280;73374;41.170;-96.156;2024-02-23T15:52:21;97087.19;;;12.16;43.05
83444;BME280;73374;41.170;-96.156;2024-02-23T15:57:26;97069.66;;;13.77;41.01
83444;BME280;73374;41.170;-96.156;2024-02-23T16:02:28;97066.28;;;12.39;42.10
83444;BME280;73374;41.170;-96.156;2024-02-23T16:07:33;97077.56;;;13.63;39.01
83444;BME280;73374;41.170;-96.156;2024-02-23T16:12:37;97075.94;;;13.62;39.02
83444;BME280;73374;41.170;-96.156;2024-02-23T16:17:40;97062.69;;;14.75;36.46
83444;BME280;73374;41.170;-96.156;2024-02-23T16:22:44;97070.56;;;14.82;36.65
83444;BME280;73374;41.170;-96.156;2024-02-23T16:27:48;97077.97;;;14.09;37.53
83444;BME280;73374;41.170;-96.156;2024-02-23T16:32:51;97064.03;;;14.02;37.82
83444;BME280;73374;41.170;-96.156;2024-02-23T16:37:54;97062.53;;;14.90;36.68
83444;BME280;73374;41.170;-96.156;2024-02-23T16:42:59;97054.00;;;14.61;35.97
83444;BME280;73374;41.170;-96.156;2024-02-23T16:48:03;97063.00;;;13.32;38.31
83444;BME280;73374;41.170;-96.156;2024-02-23T16:53:06;97070.63;;;14.54;36.68
83444;BME280;73374;41.170;-96.156;2024-02-23T16:58:10;97059.75;;;15.59;35.65
83444;BME280;73374;41.170;-96.156;2024-02-23T17:03:14;97045.94;;;15.17;36.50
83444;BME280;73374;41.170;-96.156;2024-02-23T17:08:17;97047.19;;;14.73;37.74
83444;BME280;73374;41.170;-96.156;2024-02-23T17:13:21;97047.06;;;15.62;35.64
83444;BME280;73374;41.170;-96.156;2024-02-23T17:18:24;97054.50;;;15.59;35.14
83444;BME280;73374;41.170;-96.156;2024-02-23T17:23:27;97038.81;;;14.43;36.24
83444;BME280;73374;41.170;-96.156;2024-02-23T17:28:32;97061.13;;;13.69;38.00
83444;BME280;73374;41.170;-96.156;2024-02-23T17:33:35;97054.50;;;14.43;36.77
83444;BME280;73374;41.170;-96.156;2024-02-23T17:38:39;97066.44;;;13.75;37.45
83444;BME280;73374;41.170;-96.156;2024-02-23T17:43:44;97054.91;;;14.88;35.85
83444;BME280;73374;41.170;-96.156;2024-02-23T17:48:47;97044.69;;;14.93;35.01
83444;BME280;73374;41.170;-96.156;2024-02-23T17:53:51;97037.47;;;16.61;33.31
83444;BME280;73374;41.170;-96.156;2024-02-23T17:58:55;97039.47;;;16.65;32.75
83444;BME280;73374;41.170;-96.156;2024-02-23T18:03:58;97029.78;;;16.72;32.05
83444;BME280;73374;41.170;-96.156;2024-02-23T18:09:01;97043.38;;;17.07;30.15
83444;BME280;73374;41.170;-96.156;2024-02-23T18:14:06;97026.13;;;15.62;29.93
83444;BME280;73374;41.170;-96.156;2024-02-23T18:19:09;97018.25;;;16.80;29.63
83444;BME280;73374;41.170;-96.156;2024-02-23T18:24:12;97017.44;;;15.75;29.90
83444;BME280;73374;41.170;-96.156;2024-02-23T18:29:17;97016.22;;;15.71;29.80
83444;BME280;73374;41.170;-96.156;2024-02-23T18:34:20;97020.94;;;16.53;29.11
83444;BME280;73374;41.170;-96.156;2024-02-23T18:39:23;96993.13;;;16.46;28.67
83444;BME280;73374;41.170;-96.156;2024-02-23T18:44:28;96983.44;;;16.53;28.08
83444;BME280;73374;41.170;-96.156;2024-02-23T18:49:31;96988.53;;;17.24;27.69
83444;BME280;73374;41.170;-96.156;2024-02-23T18:54:36;96954.84;;;17.96;27.68
83444;BME280;73374;41.170;-96.156;2024-02-23T18:59:40;96952.66;;;17.68;26.63
83444;BME280;73374;41.170;-96.156;2024-02-23T19:04:43;96949.34;;;17.97;26.24
83444;BME280;73374;41.170;-96.156;2024-02-23T19:09:47;96941.47;;;18.16;25.45
83444;BME280;73374;41.170;-96.156;2024-02-23T19:14:51;96932.41;;;17.93;25.50
83444;BME280;73374;41.170;-96.156;2024-02-23T19:19:54;96928.06;;;18.05;24.41
83444;BME280;73374;41.170;-96.156;2024-02-23T19:24:57;96928.81;;;18.79;23.72
83444;BME280;73374;41.170;-96.156;2024-02-23T19:30:02;96916.69;;;17.43;25.14
83444;BME280;73374;41.170;-96.156;2024-02-23T19:35:05;96920.97;;;18.06;24.86
83444;BME280;73374;41.170;-96.156;2024-02-23T19:40:09;96899.03;;;17.51;24.31
83444;BME280;73374;41.170;-96.156;2024-02-23T19:45:14;96901.31;;;17.90;23.82
83444;BME280;73374;41.170;-96.156;2024-02-23T19:50:17;96906.00;;;18.73;23.28
83444;BME280;73374;41.170;-96.156;2024-02-23T19:55:20;96896.44;;;19.44;22.05
83444;BME280;73374;41.170;-96.156;2024-02-23T20:00:24;96889.88;;;18.33;23.24
83444;BME280;73374;41.170;-96.156;2024-02-23T20:05:27;96888.31;;;16.64;24.90
83444;BME280;73374;41.170;-96.156;2024-02-23T20:10:30;96885.25;;;18.65;22.96
83444;BME280;73374;41.170;-96.156;2024-02-23T20:15:35;96881.28;;;18.74;23.45
83444;BME280;73374;41.170;-96.156;2024-02-23T20:20:39;96868.66;;;17.80;25.03
83444;BME280;73374;41.170;-96.156;2024-02-23T20:25:42;96873.63;;;18.54;23.96
83444;BME280;73374;41.170;-96.156;2024-02-23T20:30:47;96883.78;;;18.02;24.80
83444;BME280;73374;41.170;-96.156;2024-02-23T20:35:50;96876.19;;;17.76;25.65
83444;BME280;73374;41.170;-96.156;2024-02-23T20:40:53;96854.69;;;17.61;25.26
83444;BME280;73374;41.170;-96.156;2024-02-23T20:45:57;96871.50;;;17.78;25.79
83444;BME280;73374;41.170;-96.156;2024-02-23T20:51:01;96857.44;;;17.91;25.72
83444;BME280;73374;41.170;-96.156;2024-02-23T20:56:05;96858.88;;;17.68;25.75
83444;BME280;73374;41.170;-96.156;2024-02-23T21:01:09;96868.22;;;18.49;24.92
83444;BME280;73374;41.170;-96.156;2024-02-23T21:06:13;96860.13;;;17.41;26.15
83444;BME280;73374;41.170;-96.156;2024-02-23T21:11:16;96857.66;;;18.07;25.78
83444;BME280;73374;41.170;-96.156;2024-02-23T21:16:21;96857.00;;;16.38;27.16
83444;BME280;73374;41.170;-96.156;2024-02-23T21:21:24;96865.47;;;16.78;27.21
83444;BME280;73374;41.170;-96.156;2024-02-23T21:26:27;96855.84;;;16.97;25.82
83444;BME280;73374;41.170;-96.156;2024-02-23T21:31:31;96874.44;;;16.12;26.55
83444;BME280;73374;41.170;-96.156;2024-02-23T21:36:35;96889.09;;;16.33;27.17
83444;BME280;73374;41.170;-96.156;2024-02-23T21:41:38;96890.44;;;16.49;27.85
83444;BME280;73374;41.170;-96.156;2024-02-23T21:46:43;96877.88;;;16.57;26.58
83444;BME280;73374;41.170;-96.156;2024-02-23T21:51:46;96883.31;;;16.94;26.95
83444;BME280;73374;41.170;-96.156;2024-02-23T21:56:49;96889.22;;;16.90;26.48
83444;BME280;73374;41.170;-96.156;2024-02-23T22:01:54;96885.22;;;16.80;26.51
83444;BME280;73374;41.170;-96.156;2024-02-23T22:06:57;96882.69;;;16.22;27.11
83444;BME280;73374;41.170;-96.156;2024-02-23T22:12:00;96905.63;;;16.34;28.06
83444;BME280;73374;41.170;-96.156;2024-02-23T22:17:05;96898.06;;;16.06;27.92
83444;BME280;73374;41.170;-96.156;2024-02-23T22:22:08;96892.31;;;16.35;28.03
83444;BME280;73374;41.170;-96.156;2024-02-23T22:27:14;96899.72;;;16.00;26.82
83444;BME280;73374;41.170;-96.156;2024-02-23T22:32:19;96908.97;;;16.47;26.46
83444;BME280;73374;41.170;-96.156;2024-02-23T22:37:22;96900.78;;;15.66;26.76
83444;BME280;73374;41.170;-96.156;2024-02-23T22:42:25;96893.75;;;15.47;26.23
83444;BME280;73374;41.170;-96.156;2024-02-23T22:47:29;96912.28;;;15.45;25.82
83444;BME280;73374;41.170;-96.156;2024-02-23T22:52:33;96917.91;;;15.16;26.37
83444;BME280;73374;41.170;-96.156;2024-02-23T22:57:36;96905.81;;;15.01;25.81
83444;BME280;73374;41.170;-96.156;2024-02-23T23:02:40;96904.09;;;14.54;25.22
83444;BME280;73374;41.170;-96.156;2024-02-23T23:07:43;96914.00;;;14.59;25.51
83444;BME280;73374;41.170;-96.156;2024-02-23T23:12:46;96918.09;;;14.40;25.91
83444;BME280;73374;41.170;-96.156;2024-02-23T23:17:51;96927.41;;;14.49;25.77
83444;BME280;73374;41.170;-96.156;2024-02-23T23:22:54;96929.75;;;14.37;26.59
83444;BME280;73374;41.170;-96.156;2024-02-23T23:27:57;96933.66;;;14.07;26.54
83444;BME280;73374;41.170;-96.156;2024-02-23T23:33:02;96930.94;;;13.59;26.70
83444;BME280;73374;41.170;-96.156;2024-02-23T23:38:05;96947.09;;;13.20;27.36
83444;BME280;73374;41.170;-96.156;2024-02-23T23:43:08;96966.28;;;12.76;28.08
83444;BME280;73374;41.170;-96.156;2024-02-23T23:48:14;96976.78;;;12.47;30.14
83444;BME280;73374;41.170;-96.156;2024-02-23T23:53:17;96992.06;;;11.91;33.46
83444;BME280;73374;41.170;-96.156;2024-02-23T23:58:20;96983.28;;;11.54;35.72
